Time;durP1;ratioP1;P1;durP2;ratioP2;P2;SDS_P1;SDS_P2;PMS_P1;PMS_P2;Temp;Humidity;BMP_temperature;BMP_pressure;BME280_temperature;BME280_humidity;BME280_pressure;Samples;Min_cycle;Max_cycle;Signal;HPM_P1;HPM_P2
2022/10/19 00:01:22;;;;;;;4.35;2.00;;;18.80;60.20;;;;;;2380869;53;20945;-77
2022/10/19 00:03:51;;;;;;;4.25;2.17;;;18.80;60.20;;;;;;2336962;53;21942;-78
2022/10/19 00:07:02;;;;;;;4.47;2.05;;;18.70;60.00;;;;;;2341798;53;20959;-77
2022/10/19 00:09:28;;;;;;;4.55;1.83;;;18.70;60.10;;;;;;2333770;54;20935;-77
2022/10/19 00:11:55;;;;;;;4.10;1.90;;;18.70;59.90;;;;;;2423516;53;20982;-77
2022/10/19 00:14:22;;;;;;;5.05;2.25;;;18.70;59.90;;;;;;2343853;54;21054;-77
2022/10/19 00:16:50;;;;;;;3.30;1.65;;;18.60;59.90;;;;;;2362231;53;20995;-77
2022/10/19 00:19:21;;;;;;;4.57;1.58;;;18.60;60.00;;;;;;2523825;53;20979;-77
2022/10/19 00:21:49;;;;;;;3.05;1.52;;;18.60;60.00;;;;;;2466270;53;20959;-78
2022/10/19 00:24:16;;;;;;;5.43;1.80;;;18.60;60.00;;;;;;2504655;53;21824;-79
2022/10/19 00:26:43;;;;;;;3.35;2.00;;;18.50;60.00;;;;;;2451881;53;20919;-79
2022/10/19 00:29:10;;;;;;;3.55;1.98;;;18.50;60.10;;;;;;2514443;53;20948;-78
2022/10/19 00:31:37;;;;;;;3.25;1.60;;;18.50;60.30;;;;;;2541696;53;21514;-80
2022/10/19 00:34:03;;;;;;;5.93;1.95;;;18.50;60.30;;;;;;2341333;53;20991;-78
2022/10/19 00:36:34;;;;;;;3.25;1.87;;;18.40;60.10;;;;;;2590241;53;21447;-79
2022/10/19 00:39:01;;;;;;;4.10;2.10;;;18.50;60.30;;;;;;2349888;53;21006;-78
2022/10/19 00:41:30;;;;;;;3.50;1.60;;;18.40;60.10;;;;;;2343749;54;21027;-79
2022/10/19 00:45:40;;;;;;;3.50;1.85;;;18.40;60.20;;;;;;2344134;53;20939;-77
2022/10/19 00:48:06;;;;;;;3.17;1.60;;;18.40;60.20;;;;;;2351712;53;20919;-78
2022/10/19 00:50:32;;;;;;;2.80;1.48;;;18.40;60.00;;;;;;2346372;53;20915;-79
2022/10/19 00:52:59;;;;;;;5.07;1.80;;;18.40;59.90;;;;;;2361173;53;20944;-77
2022/10/19 00:55:26;;;;;;;3.60;1.60;;;18.30;59.90;;;;;;2347668;53;21004;-78
2022/10/19 00:57:53;;;;;;;4.30;1.50;;;18.30;59.80;;;;;;2576945;53;20971;-77
2022/10/19 01:00:19;;;;;;;3.80;1.73;;;18.30;59.90;;;;;;2429526;53;20932;-79
2022/10/19 01:02:46;;;;;;;5.20;2.00;;;18.20;59.80;;;;;;2539704;53;21468;-77
2022/10/19 01:05:12;;;;;;;3.25;1.60;;;18.20;59.90;;;;;;2393861;53;20963;-78
2022/10/19 01:07:39;;;;;;;4.03;2.00;;;18.20;59.90;;;;;;2499215;53;20947;-77
2022/10/19 01:10:07;;;;;;;4.00;1.92;;;18.10;59.80;;;;;;2343122;53;20906;-77
2022/10/19 01:14:22;;;;;;;5.28;2.03;;;18.10;60.00;;;;;;2340294;54;21781;-77
2022/10/19 01:17:17;;;;;;;3.78;1.40;;;18.10;60.00;;;;;;2484692;53;20978;-78
2022/10/19 01:26:44;;;;;;;3.25;1.60;;;18.00;59.70;;;;;;2391463;53;20971;-77
2022/10/19 01:29:41;;;;;;;2.72;1.00;;;18.00;59.90;;;;;;2400698;53;20951;-79
2022/10/19 01:32:34;;;;;;;2.95;1.20;;;17.90;59.60;;;;;;2354635;53;21569;-77
2022/10/19 01:35:29;;;;;;;5.25;1.40;;;17.80;59.60;;;;;;2567053;53;20991;-77
2022/10/19 01:38:13;;;;;;;3.40;1.67;;;17.80;59.60;;;;;;2426889;53;20923;-77
2022/10/19 01:41:07;;;;;;;3.47;1.80;;;17.70;59.50;;;;;;2589650;53;21019;-79
2022/10/19 01:44:02;;;;;;;2.87;1.40;;;17.70;59.70;;;;;;2343800;53;20950;-77
2022/10/19 01:46:35;;;;;;;3.72;1.73;;;17.60;59.70;;;;;;2344350;53;20971;-77
2022/10/19 01:49:59;;;;;;;5.40;2.25;;;17.60;59.80;;;;;;2591012;53;20943;-77
2022/10/19 01:52:26;;;;;;;4.22;2.25;;;17.60;60.10;;;;;;2351141;53;21008;-79
2022/10/19 01:54:55;;;;;;;4.82;2.33;;;17.50;60.60;;;;;;2341341;53;20995;-77
2022/10/19 01:57:32;;;;;;;4.80;2.60;;;17.50;60.10;;;;;;2344895;54;21056;-77
2022/10/19 02:00:04;;;;;;;3.37;1.75;;;17.50;60.40;;;;;;2343261;53;20947;-79
2022/10/19 02:02:30;;;;;;;4.23;2.40;;;17.50;60.30;;;;;;2377945;53;20923;-79
2022/10/19 02:04:58;;;;;;;4.30;2.30;;;17.50;60.50;;;;;;2351233;53;20923;-77
2022/10/19 02:07:24;;;;;;;5.35;2.37;;;17.50;60.70;;;;;;2388891;53;20935;-78
2022/10/19 02:09:50;;;;;;;6.22;2.22;;;17.50;60.80;;;;;;2346752;53;20974;-79
2022/10/19 02:12:18;;;;;;;5.75;1.62;;;17.50;60.80;;;;;;2341111;53;21023;-77
2022/10/19 02:14:46;;;;;;;4.32;1.92;;;17.50;60.90;;;;;;2449171;53;20979;-79
2022/10/19 02:17:18;;;;;;;4.15;2.50;;;17.50;61.00;;;;;;2413595;53;21006;-77
2022/10/19 02:19:44;;;;;;;3.53;2.10;;;17.50;61.00;;;;;;2415989;53;20990;-77
2022/10/19 02:22:11;;;;;;;3.85;2.10;;;17.50;61.10;;;;;;2343703;54;20955;-77
2022/10/19 02:24:39;;;;;;;2.90;1.73;;;17.50;61.10;;;;;;2423749;53;20927;-77
2022/10/19 02:27:05;;;;;;;3.42;2.00;;;17.50;61.10;;;;;;2344106;53;21910;-78
2022/10/19 02:29:32;;;;;;;2.90;1.75;;;17.50;61.20;;;;;;2388112;53;20987;-78
2022/10/19 02:31:59;;;;;;;6.28;2.10;;;17.50;61.40;;;;;;2591052;53;21055;-77
2022/10/19 02:34:25;;;;;;;3.05;1.73;;;17.50;61.40;;;;;;2344303;53;21007;-78
2022/10/19 02:36:51;;;;;;;4.87;2.10;;;17.50;61.40;;;;;;2343423;54;21006;-78
2022/10/19 02:39:18;;;;;;;3.85;2.15;;;17.60;61.50;;;;;;2343556;54;20954;-78
2022/10/19 02:41:50;;;;;;;4.35;2.45;;;17.60;61.70;;;;;;2567989;53;20967;-79
2022/10/19 02:44:30;;;;;;;5.50;2.40;;;17.60;61.90;;;;;;2468528;53;20960;-78
2022/10/19 02:47:05;;;;;;;3.97;1.98;;;17.60;62.20;;;;;;2335182;53;21047;-77
2022/10/19 02:49:33;;;;;;;4.20;2.25;;;17.60;62.00;;;;;;2343943;54;21006;-78
2022/10/19 02:52:13;;;;;;;6.35;2.22;;;17.60;61.70;;;;;;2394338;53;20983;-78
2022/10/19 02:54:39;;;;;;;3.90;1.98;;;17.60;61.60;;;;;;2343686;53;20947;-78
2022/10/19 02:57:28;;;;;;;4.03;2.00;;;17.60;61.60;;;;;;2430187;53;20945;-79
2022/10/19 02:59:55;;;;;;;4.18;1.70;;;17.70;62.10;;;;;;2457392;53;21493;-78
2022/10/19 03:02:21;;;;;;;3.70;1.87;;;17.60;61.60;;;;;;2590115;53;20939;-77
2022/10/19 03:04:49;;;;;;;3.30;1.87;;;17.70;61.60;;;;;;2342567;53;21003;-78
2022/10/19 03:07:18;;;;;;;3.50;1.60;;;17.70;61.60;;;;;;2344904;53;21773;-77
2022/10/19 03:09:45;;;;;;;2.85;1.45;;;17.70;61.60;;;;;;2372118;53;20987;-78
2022/10/19 03:12:11;;;;;;;2.55;1.25;;;17.70;61.60;;;;;;2429997;53;21022;-78
2022/10/19 03:14:38;;;;;;;5.72;1.70;;;17.70;61.60;;;;;;2343878;53;21376;-78
2022/10/19 03:17:04;;;;;;;2.95;1.60;;;17.70;61.60;;;;;;2540511;53;20999;-78
2022/10/19 03:19:31;;;;;;;2.62;1.30;;;17.60;61.50;;;;;;2352667;53;20919;-79
2022/10/19 03:21:58;;;;;;;2.70;1.40;;;17.60;61.50;;;;;;2404431;53;21079;-79
2022/10/19 03:24:25;;;;;;;2.83;1.50;;;17.60;61.50;;;;;;2359697;53;20951;-79
2022/10/19 03:26:51;;;;;;;3.47;1.60;;;17.60;61.40;;;;;;2346624;53;20992;-78
2022/10/19 03:29:17;;;;;;;2.62;1.50;;;17.60;61.50;;;;;;2343596;53;20918;-78
2022/10/19 03:31:45;;;;;;;3.22;1.77;;;17.60;61.50;;;;;;2343601;54;21916;-78
2022/10/19 03:34:13;;;;;;;2.62;1.30;;;17.60;61.50;;;;;;2434111;53;20919;-78
2022/10/19 03:36:40;;;;;;;2.53;1.35;;;17.60;61.60;;;;;;2343872;53;20979;-78
2022/10/19 03:39:11;;;;;;;2.10;1.00;;;17.60;61.70;;;;;;2446263;53;20919;-79
2022/10/19 03:41:37;;;;;;;4.37;2.00;;;17.60;61.70;;;;;;2324167;54;20912;-78
2022/10/19 03:44:04;;;;;;;3.30;1.80;;;17.60;61.70;;;;;;2343806;53;20917;-78
2022/10/19 03:46:31;;;;;;;3.50;1.67;;;17.60;61.90;;;;;;2394073;53;20991;-78
2022/10/19 03:48:58;;;;;;;2.80;1.58;;;17.60;61.90;;;;;;2344105;53;21376;-78
2022/10/19 03:51:25;;;;;;;3.87;1.65;;;17.60;61.70;;;;;;2504781;53;21711;-78
2022/10/19 03:54:00;;;;;;;2.42;1.23;;;17.60;61.70;;;;;;2345044;53;21023;-79
2022/10/19 03:56:28;;;;;;;2.72;1.35;;;17.60;61.60;;;;;;2501588;53;20955;-79
2022/10/19 03:58:56;;;;;;;2.92;1.37;;;17.60;61.50;;;;;;2571552;53;20966;-79
2022/10/19 04:01:31;;;;;;;2.58;1.25;;;17.60;61.60;;;;;;2344028;53;20945;-79
2022/10/19 04:03:59;;;;;;;2.50;1.37;;;17.60;61.70;;;;;;2343316;53;21069;-78
2022/10/19 04:06:30;;;;;;;2.78;1.20;;;17.60;61.60;;;;;;2398829;53;21351;-79
2022/10/19 04:08:56;;;;;;;2.85;1.20;;;17.50;61.50;;;;;;2347051;53;20979;-78
2022/10/19 04:11:24;;;;;;;2.15;1.08;;;17.50;61.50;;;;;;2376236;53;20947;-77
2022/10/19 04:13:51;;;;;;;2.80;1.50;;;17.50;61.50;;;;;;2380256;53;20962;-78
2022/10/19 04:16:17;;;;;;;3.62;1.75;;;17.50;61.60;;;;;;2590602;53;20984;-77
2022/10/19 04:18:44;;;;;;;2.35;1.33;;;17.50;61.70;;;;;;2343945;54;21039;-78
2022/10/19 04:21:38;;;;;;;2.70;1.50;;;17.50;61.90;;;;;;2343847;54;20920;-79
2022/10/19 04:24:12;;;;;;;2.50;1.17;;;17.50;62.30;;;;;;2343521;53;20947;-78
2022/10/19 04:26:44;;;;;;;2.15;1.20;;;17.50;62.00;;;;;;2590310;53;20923;-78
2022/10/19 04:29:10;;;;;;;2.10;1.02;;;17.50;62.00;;;;;;2505150;53;21025;-79
2022/10/19 04:31:36;;;;;;;2.30;1.12;;;17.50;62.00;;;;;;2590476;53;20971;-77
2022/10/19 04:41:04;;;;;;;1.90;0.90;;;17.50;62.20;;;;;;2360816;53;21076;-77
2022/10/19 04:43:31;;;;;;;2.75;1.27;;;17.50;61.90;;;;;;2346245;53;21424;-78
2022/10/19 04:46:04;;;;;;;2.50;1.20;;;17.60;62.10;;;;;;2350562;53;20962;-78
2022/10/19 04:48:31;;;;;;;3.10;1.40;;;17.60;62.30;;;;;;2345864;54;20924;-77
2022/10/19 04:50:59;;;;;;;3.70;1.48;;;17.60;62.30;;;;;;2343622;53;20954;-77
2022/10/19 04:53:26;;;;;;;2.67;1.30;;;17.60;62.40;;;;;;2344325;53;21709;-77
2022/10/19 04:55:53;;;;;;;2.58;1.27;;;17.60;62.50;;;;;;2343791;54;21031;-77
2022/10/19 04:58:20;;;;;;;2.87;1.55;;;17.60;62.40;;;;;;2433302;53;20947;-78
2022/10/19 05:00:46;;;;;;;2.90;1.45;;;17.60;62.40;;;;;;2342749;53;20924;-79
2022/10/19 05:03:14;;;;;;;2.62;1.25;;;17.60;62.40;;;;;;2343892;54;20959;-79
2022/10/19 05:05:40;;;;;;;2.22;1.17;;;17.60;62.40;;;;;;2342175;53;20977;-77
2022/10/19 05:08:08;;;;;;;2.30;1.20;;;17.60;62.30;;;;;;2344247;53;20940;-78
2022/10/19 05:10:40;;;;;;;2.83;1.20;;;17.70;62.30;;;;;;2401065;53;21008;-78
2022/10/19 05:13:08;;;;;;;2.70;1.15;;;17.70;62.30;;;;;;2369064;53;20935;-78
2022/10/19 05:15:35;;;;;;;3.55;1.62;;;17.60;62.20;;;;;;2377183;53;21055;-78
2022/10/19 05:18:01;;;;;;;3.20;1.90;;;17.60;62.20;;;;;;2345080;53;21024;-78
2022/10/19 05:20:28;;;;;;;2.80;1.60;;;17.70;62.40;;;;;;2407171;53;20959;-78
2022/10/19 05:22:57;;;;;;;2.72;1.45;;;17.70;62.40;;;;;;2418214;53;21031;-78
2022/10/19 05:25:23;;;;;;;3.72;2.10;;;17.70;62.40;;;;;;2345908;53;20954;-78
2022/10/19 05:27:51;;;;;;;3.17;1.75;;;17.70;62.40;;;;;;2344014;53;21023;-78
2022/10/19 05:30:18;;;;;;;2.35;1.17;;;17.70;62.60;;;;;;2364276;53;20956;-78
2022/10/19 05:32:45;;;;;;;2.78;1.40;;;17.70;62.50;;;;;;2471145;53;21929;-79
2022/10/19 05:35:11;;;;;;;2.20;1.08;;;17.70;62.40;;;;;;2343985;54;21027;-78
2022/10/19 05:37:38;;;;;;;2.70;1.42;;;17.70;62.40;;;;;;2344499;54;20983;-78
2022/10/19 05:40:08;;;;;;;3.17;1.77;;;17.70;62.40;;;;;;2347797;53;20940;-79
2022/10/19 05:42:34;;;;;;;3.67;1.73;;;17.70;62.50;;;;;;2403523;53;20919;-78
2022/10/19 05:45:01;;;;;;;3.25;1.65;;;17.70;62.50;;;;;;2548597;53;21058;-78
2022/10/19 05:47:29;;;;;;;3.55;1.65;;;17.70;62.50;;;;;;2590153;53;20991;-78
2022/10/19 05:49:55;;;;;;;3.53;1.80;;;17.70;62.60;;;;;;2452814;53;21503;-77
2022/10/19 05:52:22;;;;;;;2.87;1.45;;;17.70;62.60;;;;;;2344124;54;21792;-79
2022/10/19 05:54:48;;;;;;;3.03;1.60;;;17.70;62.60;;;;;;2380359;53;21052;-79
2022/10/19 05:57:14;;;;;;;4.82;2.00;;;17.70;62.60;;;;;;2343902;54;20927;-78
2022/10/19 05:59:40;;;;;;;3.87;2.10;;;17.70;62.70;;;;;;2376508;53;20947;-78
2022/10/19 06:02:11;;;;;;;3.55;1.80;;;17.70;62.80;;;;;;2344484;54;21401;-79
2022/10/19 06:04:38;;;;;;;4.05;2.28;;;17.70;62.90;;;;;;2382153;53;20995;-78
2022/10/19 06:07:04;;;;;;;3.37;1.85;;;17.70;62.90;;;;;;2344075;54;20975;-79
2022/10/19 06:09:34;;;;;;;3.92;1.73;;;17.70;63.00;;;;;;2590238;53;21454;-78
2022/10/19 06:12:01;;;;;;;3.42;1.87;;;17.70;63.00;;;;;;2359848;53;20943;-78
2022/10/19 06:14:27;;;;;;;5.30;2.20;;;17.80;63.10;;;;;;2417075;53;20947;-78
2022/10/19 06:16:55;;;;;;;3.47;1.87;;;17.80;63.20;;;;;;2404616;53;21357;-80
2022/10/19 06:19:21;;;;;;;3.62;1.55;;;17.80;63.10;;;;;;2434003;53;20960;-78
2022/10/19 06:21:48;;;;;;;3.28;1.60;;;17.80;63.10;;;;;;2429039;53;20915;-78
2022/10/19 06:24:14;;;;;;;2.83;1.33;;;17.80;63.10;;;;;;2376512;53;21512;-78
2022/10/19 06:26:40;;;;;;;3.00;1.30;;;17.80;63.10;;;;;;2382948;53;21392;-79
2022/10/19 06:29:07;;;;;;;3.85;1.45;;;17.90;63.10;;;;;;2390305;53;20967;-79
2022/10/19 06:31:37;;;;;;;3.33;1.60;;;17.90;63.00;;;;;;2413174;53;20955;-78
2022/10/19 06:34:03;;;;;;;2.90;1.40;;;17.90;62.90;;;;;;2344103;54;20904;-78
2022/10/19 06:36:31;;;;;;;4.20;1.70;;;17.90;62.90;;;;;;2344029;54;21771;-78
2022/10/19 06:38:58;;;;;;;3.42;1.55;;;17.90;62.90;;;;;;2588998;53;20948;-78
2022/10/19 06:41:25;;;;;;;4.28;1.90;;;17.90;62.90;;;;;;2433827;53;21398;-79
2022/10/19 06:43:52;;;;;;;4.35;2.33;;;17.90;62.90;;;;;;2352097;53;20948;-79
2022/10/19 06:46:22;;;;;;;4.00;1.92;;;17.90;62.90;;;;;;2344352;53;20956;-79
2022/10/19 06:48:53;;;;;;;3.25;1.92;;;18.00;63.10;;;;;;2394200;53;21404;-78
2022/10/19 06:51:21;;;;;;;3.42;1.70;;;17.90;63.20;;;;;;2590700;53;21031;-80
2022/10/19 06:53:48;;;;;;;3.20;1.65;;;18.00;63.30;;;;;;2487271;53;20919;-79
2022/10/19 06:56:28;;;;;;;3.70;1.83;;;18.00;63.30;;;;;;2545113;53;21328;-80
2022/10/19 06:58:55;;;;;;;3.10;1.60;;;18.00;63.50;;;;;;2349389;53;20983;-79
2022/10/19 07:01:23;;;;;;;3.17;1.50;;;18.00;63.30;;;;;;2590688;53;21759;-78
2022/10/19 07:03:50;;;;;;;3.60;1.70;;;18.00;63.40;;;;;;2343782;54;20951;-78
2022/10/19 07:06:16;;;;;;;3.58;1.75;;;18.10;63.50;;;;;;2343610;53;20978;-78
2022/10/19 07:08:43;;;;;;;4.18;2.25;;;18.10;63.50;;;;;;2488366;53;21365;-79
2022/10/19 07:11:11;;;;;;;3.35;1.83;;;18.10;63.50;;;;;;2468216;53;21267;-79
2022/10/19 07:13:37;;;;;;;2.95;1.62;;;18.10;63.50;;;;;;2461622;53;20990;-79
2022/10/19 07:16:09;;;;;;;3.50;1.87;;;18.10;63.50;;;;;;2343023;54;20977;-78
2022/10/19 07:18:38;;;;;;;3.12;1.75;;;18.10;63.50;;;;;;2344310;53;21043;-79
2022/10/19 07:21:08;;;;;;;3.08;1.42;;;18.20;63.70;;;;;;2590181;53;21510;-78
2022/10/19 07:23:35;;;;;;;3.72;1.77;;;18.20;63.60;;;;;;2406419;53;21527;-80
2022/10/19 07:26:06;;;;;;;3.00;1.70;;;18.20;63.60;;;;;;2343706;53;21526;-79
2022/10/19 07:28:33;;;;;;;3.12;1.73;;;18.20;63.80;;;;;;2588932;53;20905;-78
2022/10/19 07:31:19;;;;;;;3.65;1.87;;;18.20;63.60;;;;;;2342641;53;20994;-78
2022/10/19 07:33:52;;;;;;;4.20;2.37;;;18.30;63.90;;;;;;2441034;53;20943;-79
2022/10/19 07:36:18;;;;;;;3.55;1.83;;;18.30;63.70;;;;;;2347405;54;20988;-79
2022/10/19 07:38:45;;;;;;;3.60;1.85;;;18.30;63.60;;;;;;2342886;53;20978;-78
2022/10/19 07:41:13;;;;;;;3.97;2.08;;;18.30;63.50;;;;;;2343452;54;20899;-78
2022/10/19 07:43:40;;;;;;;6.00;1.92;;;18.30;63.40;;;;;;2351600;53;21726;-78
2022/10/19 07:46:09;;;;;;;4.00;1.92;;;18.30;63.30;;;;;;2344201;54;20919;-78
2022/10/19 07:48:35;;;;;;;3.50;1.80;;;18.30;63.20;;;;;;2358758;53;20962;-78
2022/10/19 07:51:02;;;;;;;3.30;1.65;;;18.30;63.30;;;;;;2364571;53;20943;-78
2022/10/19 07:53:29;;;;;;;3.78;1.80;;;18.30;63.40;;;;;;2343833;53;21505;-79
2022/10/19 07:55:55;;;;;;;3.53;1.90;;;18.30;63.50;;;;;;2343530;53;21320;-78
2022/10/19 07:58:21;;;;;;;3.47;1.77;;;18.20;63.60;;;;;;2344917;53;20935;-78
2022/10/19 08:00:48;;;;;;;3.67;2.00;;;18.20;63.70;;;;;;2344168;53;20947;-78
2022/10/19 08:03:14;;;;;;;3.55;1.75;;;18.30;63.90;;;;;;2359639;53;20912;-78
2022/10/19 08:06:12;;;;;;;4.47;2.62;;;18.30;63.90;;;;;;2364861;53;20975;-78
2022/10/19 08:08:39;;;;;;;6.15;2.75;;;18.30;64.00;;;;;;2408078;53;20947;-78
2022/10/19 08:11:26;;;;;;;3.53;2.08;;;18.30;64.00;;;;;;2343558;53;20985;-78
2022/10/19 08:13:53;;;;;;;4.05;2.33;;;18.40;64.30;;;;;;2590527;53;20963;-78
2022/10/19 08:17:21;;;;;;;6.45;2.35;;;18.40;63.90;;;;;;2345884;53;20990;-79
2022/10/19 08:19:47;;;;;;;3.85;2.20;;;18.40;64.00;;;;;;2345077;53;21676;-79
2022/10/19 08:22:14;;;;;;;3.87;2.30;;;18.40;63.40;;;;;;2343525;53;20946;-79
2022/10/19 08:24:40;;;;;;;4.12;2.30;;;18.40;63.40;;;;;;2350761;53;20999;-78
2022/10/19 08:27:10;;;;;;;3.80;2.08;;;18.40;63.60;;;;;;2335951;53;20932;-78
2022/10/19 08:29:36;;;;;;;3.33;1.95;;;18.40;63.80;;;;;;2529800;53;21256;-78
2022/10/19 08:32:02;;;;;;;4.72;2.65;;;18.40;64.00;;;;;;2343224;53;20903;-79
2022/10/19 08:34:28;;;;;;;3.83;2.17;;;18.40;64.10;;;;;;2344481;53;21373;-78
2022/10/19 08:36:55;;;;;;;4.70;2.58;;;18.40;64.30;;;;;;2343737;53;20950;-79
2022/10/19 08:39:22;;;;;;;4.57;2.62;;;18.40;64.30;;;;;;2449835;53;20931;-78
2022/10/19 08:42:02;;;;;;;4.40;2.50;;;18.50;64.50;;;;;;2358141;53;20939;-78
2022/10/19 08:46:23;;;;;;;4.45;2.42;;;18.50;64.70;;;;;;2546151;53;21016;-78
2022/10/19 08:48:50;;;;;;;3.65;2.15;;;18.60;64.60;;;;;;2344148;53;21019;-78
2022/10/19 08:51:17;;;;;;;3.62;1.87;;;18.60;64.20;;;;;;2370136;53;20969;-78
2022/10/19 08:53:53;;;;;;;4.15;2.35;;;18.60;64.00;;;;;;2520088;53;21432;-78
2022/10/19 08:56:54;;;;;;;4.43;2.53;;;18.60;64.20;;;;;;2344097;54;20935;-78
2022/10/19 08:59:26;;;;;;;4.30;2.42;;;18.60;65.10;;;;;;2343938;54;20947;-79
2022/10/19 09:02:00;;;;;;;5.43;3.00;;;18.60;64.00;;;;;;2453663;53;20920;-78
2022/10/19 09:04:34;;;;;;;5.80;3.28;;;18.60;64.00;;;;;;2343804;53;21515;-78
2022/10/19 09:07:27;;;;;;;5.25;3.08;;;18.60;64.00;;;;;;2344230;53;20990;-79
2022/10/19 09:10:02;;;;;;;6.95;3.00;;;18.60;64.50;;;;;;2343937;53;20943;-78
2022/10/19 09:12:40;;;;;;;5.32;2.95;;;18.60;64.40;;;;;;2495624;53;20932;-78
2022/10/19 09:15:19;;;;;;;4.78;2.72;;;18.70;64.70;;;;;;2386237;53;21051;-78
2022/10/19 09:17:46;;;;;;;5.10;2.70;;;18.70;64.70;;;;;;2469527;53;20959;-78
2022/10/19 09:20:15;;;;;;;4.65;2.60;;;18.70;64.70;;;;;;2375121;53;20992;-79
2022/10/19 09:22:42;;;;;;;4.65;2.40;;;18.70;64.90;;;;;;2419374;53;21035;-78
2022/10/19 09:25:18;;;;;;;4.90;3.05;;;18.80;65.00;;;;;;2537853;53;20947;-78
2022/10/19 09:27:57;;;;;;;5.53;3.00;;;18.80;65.20;;;;;;2342388;53;20947;-78
2022/10/19 09:30:24;;;;;;;5.80;3.60;;;18.80;65.00;;;;;;2343929;54;20995;-79
2022/10/19 09:32:57;;;;;;;5.37;3.35;;;18.90;65.00;;;;;;2350195;53;21034;-78
2022/10/19 09:35:29;;;;;;;6.50;3.70;;;18.90;64.90;;;;;;2343794;54;21123;-79
2022/10/19 09:37:55;;;;;;;5.30;3.33;;;19.00;65.00;;;;;;2343135;54;20967;-78
2022/10/19 09:40:26;;;;;;;5.57;3.35;;;19.00;64.80;;;;;;2343318;53;20979;-78
2022/10/19 09:42:56;;;;;;;5.07;2.97;;;19.00;64.80;;;;;;2511061;53;20971;-79
2022/10/19 09:45:37;;;;;;;7.40;3.55;;;19.00;64.60;;;;;;2349900;53;20947;-79
2022/10/19 09:48:09;;;;;;;5.97;3.70;;;19.10;64.90;;;;;;2590661;53;20987;-79
2022/10/19 09:50:41;;;;;;;6.28;3.30;;;19.10;64.80;;;;;;2345113;53;21495;-78
2022/10/19 09:53:17;;;;;;;6.15;3.87;;;19.10;64.80;;;;;;2344570;53;20971;-79
2022/10/19 09:55:45;;;;;;;6.18;3.62;;;19.10;64.90;;;;;;2344372;54;21033;-78
2022/10/19 09:58:17;;;;;;;9.20;4.37;;;19.10;64.70;;;;;;2343753;54;20967;-79
2022/10/19 10:00:53;;;;;;;6.97;3.90;;;19.10;64.90;;;;;;2433152;53;20927;-79
2022/10/19 10:04:19;;;;;;;6.70;4.18;;;19.10;64.90;;;;;;2350458;53;20945;-78
2022/10/19 10:06:46;;;;;;;5.97;3.55;;;19.20;65.20;;;;;;2339044;53;20935;-78
2022/10/19 10:09:17;;;;;;;5.53;3.42;;;19.20;64.70;;;;;;2343677;54;21001;-78
2022/10/19 10:11:44;;;;;;;6.18;3.80;;;19.20;64.90;;;;;;2345694;53;21047;-78
2022/10/19 10:14:25;;;;;;;5.72;3.55;;;19.20;64.90;;;;;;2344589;54;20934;-78
2022/10/19 10:16:56;;;;;;;6.50;4.07;;;19.20;65.00;;;;;;2342945;54;20959;-78
2022/10/19 10:19:26;;;;;;;6.65;4.37;;;19.20;65.00;;;;;;2343824;53;20946;-78
2022/10/19 10:21:54;;;;;;;5.82;3.70;;;19.20;64.90;;;;;;2496165;53;21064;-78
2022/10/19 10:24:22;;;;;;;5.97;3.90;;;19.20;64.80;;;;;;2498101;53;20987;-78
2022/10/19 10:26:53;;;;;;;5.50;3.50;;;19.20;64.70;;;;;;2346609;53;21076;-80
2022/10/19 10:29:24;;;;;;;5.18;3.17;;;19.20;64.80;;;;;;2380199;53;21036;-78
2022/10/19 10:32:27;;;;;;;5.50;2.92;;;19.30;64.80;;;;;;2587645;53;20967;-78
2022/10/19 10:35:05;;;;;;;6.18;3.85;;;19.30;65.00;;;;;;2348139;53;21423;-78
2022/10/19 10:37:41;;;;;;;5.30;3.37;;;19.30;65.00;;;;;;2347227;53;21079;-78
2022/10/19 10:40:28;;;;;;;6.47;3.60;;;19.30;64.80;;;;;;2398145;53;21380;-78
2022/10/19 10:43:07;;;;;;;6.53;3.90;;;19.30;64.80;;;;;;2400149;53;20907;-79
2022/10/19 10:45:39;;;;;;;5.68;3.33;;;19.30;64.70;;;;;;2358123;53;20959;-78
2022/10/19 10:48:31;;;;;;;7.10;3.65;;;19.30;64.70;;;;;;2360925;53;20952;-78
2022/10/19 10:50:58;;;;;;;5.22;3.28;;;19.40;65.00;;;;;;2473031;53;20995;-78
2022/10/19 10:53:42;;;;;;;5.18;3.58;;;19.30;64.70;;;;;;2343509;53;20923;-78
2022/10/19 10:56:27;;;;;;;4.90;2.95;;;19.40;65.00;;;;;;2344029;53;21018;-78
2022/10/19 10:59:00;;;;;;;5.25;3.45;;;19.40;64.90;;;;;;2429802;53;20915;-79
2022/10/19 11:01:30;;;;;;;;;;;19.40;64.80;;;;;;2350488;53;21728;-78
2022/10/19 11:04:00;;;;;;;4.62;2.87;;;19.40;64.90;;;;;;2343401;54;20062;-78
2022/10/19 11:06:27;;;;;;;5.47;3.45;;;19.40;64.70;;;;;;2349438;53;21455;-79
2022/10/19 11:09:06;;;;;;;5.72;3.58;;;19.40;64.70;;;;;;2342934;53;21536;-79
2022/10/19 11:11:38;;;;;;;5.47;3.20;;;19.50;64.90;;;;;;2342932;53;21328;-79
2022/10/19 11:21:06;;;;;;;5.35;3.60;;;19.50;64.70;;;;;;2359182;53;20931;-78
2022/10/19 11:27:16;;;;;;;4.72;2.92;;;19.60;64.70;;;;;;2343617;54;21014;-79
2022/10/19 11:31:50;;;;;;;4.70;3.12;;;19.60;64.40;;;;;;2344009;54;21705;-78
2022/10/19 11:37:52;;;;;;;5.95;3.67;;;19.60;64.40;;;;;;2588240;53;20992;-77
2022/10/19 11:40:38;;;;;;;5.67;3.63;;;19.50;64.20;;;;;;2343534;53;21032;-78
2022/10/19 11:43:29;;;;;;;6.12;4.07;;;19.50;64.20;;;;;;2588211;53;21619;-78
2022/10/19 11:46:03;;;;;;;6.05;3.97;;;19.50;64.50;;;;;;2338399;53;21266;-77
2022/10/19 11:51:01;;;;;;;7.25;4.87;;;19.50;65.30;;;;;;2432322;53;21266;-78
2022/10/19 11:54:04;;;;;;;7.35;4.53;;;19.60;64.80;;;;;;2343696;54;20970;-78
2022/10/19 11:56:42;;;;;;;7.40;5.03;;;19.60;64.70;;;;;;2367527;53;20939;-77
2022/10/19 11:59:24;;;;;;;7.10;4.65;;;19.60;64.90;;;;;;2345585;53;20979;-77
2022/10/19 12:05:07;;;;;;;7.20;4.97;;;19.60;64.90;;;;;;2343291;53;20946;-77
2022/10/19 12:07:50;;;;;;;6.68;4.18;;;19.70;65.00;;;;;;2562424;53;22205;-78
2022/10/19 12:10:49;;;;;;;9.07;5.35;;;19.80;65.20;;;;;;2579316;53;20975;-79
2022/10/19 12:13:20;;;;;;;9.02;5.28;;;19.80;65.30;;;;;;2343910;54;20939;-77
2022/10/19 12:15:54;;;;;;;7.85;5.25;;;19.80;65.10;;;;;;2346966;53;20968;-78
2022/10/19 12:18:43;;;;;;;8.85;5.62;;;19.90;65.30;;;;;;2421522;52;20923;-77
2022/10/19 12:21:28;;;;;;;6.43;4.12;;;19.90;66.10;;;;;;2540172;53;20953;-77
2022/10/19 12:23:56;;;;;;;7.37;4.65;;;20.00;66.00;;;;;;2351930;53;20981;-78
2022/10/19 12:26:24;;;;;;;7.00;4.32;;;20.00;66.70;;;;;;2343853;53;20999;-77
2022/10/19 12:28:54;;;;;;;8.68;4.85;;;20.10;66.10;;;;;;2345971;53;20952;-77
2022/10/19 12:31:23;;;;;;;7.50;4.72;;;20.20;66.30;;;;;;2368294;53;20920;-76
2022/10/19 12:33:56;;;;;;;7.00;4.65;;;20.20;66.40;;;;;;2343633;53;21207;-77
2022/10/19 12:36:41;;;;;;;8.93;4.65;;;20.30;66.60;;;;;;2381763;53;20926;-77
2022/10/19 12:40:04;;;;;;;6.65;4.40;;;20.50;67.00;;;;;;2324295;54;21006;-77
2022/10/19 12:42:43;;;;;;;7.03;4.53;;;20.60;67.00;;;;;;2403791;53;20943;-77
2022/10/19 12:46:58;;;;;;;9.48;4.60;;;20.70;66.90;;;;;;2391912;53;21047;-78
2022/10/19 12:49:37;;;;;;;6.12;3.95;;;20.80;66.90;;;;;;2343761;53;20967;-78
2022/10/19 12:52:03;;;;;;;7.30;4.05;;;20.90;66.60;;;;;;2346402;53;20979;-78
2022/10/19 12:54:31;;;;;;;7.95;4.40;;;21.00;66.50;;;;;;2342724;53;20999;-78
2022/10/19 12:57:00;;;;;;;8.85;5.47;;;21.10;66.40;;;;;;2394720;53;20962;-79
2022/10/19 12:59:34;;;;;;;6.40;4.30;;;21.20;66.30;;;;;;2467134;53;21008;-78
2022/10/19 13:02:01;;;;;;;7.43;4.82;;;21.20;66.10;;;;;;2343299;54;21115;-77
2022/10/19 13:04:33;;;;;;;6.40;4.60;;;21.30;66.20;;;;;;2343836;54;20979;-78
2022/10/19 13:07:07;;;;;;;8.45;4.87;;;21.40;66.20;;;;;;2347437;53;20919;-78
2022/10/19 13:09:43;;;;;;;7.87;4.82;;;21.50;66.10;;;;;;2589346;53;21498;-77
2022/10/19 13:12:28;;;;;;;6.50;4.47;;;21.50;65.90;;;;;;2343275;54;20954;-78
2022/10/19 13:15:01;;;;;;;6.22;4.35;;;21.60;65.90;;;;;;2343032;54;20991;-77
2022/10/19 13:17:39;;;;;;;6.87;4.10;;;21.70;65.90;;;;;;2343489;53;21474;-77
2022/10/19 13:21:06;;;;;;;7.68;3.80;;;21.80;66.00;;;;;;2343504;53;22003;-79
2022/10/19 13:23:36;;;;;;;6.12;4.00;;;21.80;65.90;;;;;;2345394;53;20939;-78
2022/10/19 13:26:29;;;;;;;5.72;3.50;;;21.90;65.80;;;;;;2343582;54;21047;-78
2022/10/19 13:28:55;;;;;;;5.47;3.65;;;22.00;65.70;;;;;;2343507;54;21815;-78
2022/10/19 13:31:37;;;;;;;5.87;4.00;;;22.00;65.80;;;;;;2343361;53;20967;-79
2022/10/19 13:34:08;;;;;;;6.68;4.12;;;22.10;65.70;;;;;;2343513;53;20973;-78
2022/10/19 13:36:38;;;;;;;6.25;3.12;;;22.20;65.60;;;;;;2344487;54;21010;-77
2022/10/19 13:39:04;;;;;;;10.70;3.35;;;22.20;65.70;;;;;;2343065;53;21336;-77
2022/10/19 13:41:49;;;;;;;4.60;3.15;;;22.30;65.80;;;;;;2350666;53;20958;-77
2022/10/19 13:44:26;;;;;;;4.10;2.58;;;22.40;65.70;;;;;;2344002;54;21496;-77
2022/10/19 13:47:38;;;;;;;5.37;3.20;;;22.40;65.70;;;;;;2343877;53;21014;-78
2022/10/19 13:54:42;;;;;;;6.00;3.47;;;22.50;65.40;;;;;;2591229;53;21068;-80
2022/10/19 14:01:11;;;;;;;4.75;2.58;;;22.70;65.30;;;;;;2343707;53;20935;-77
2022/10/19 14:06:53;;;;;;;4.35;2.97;;;22.80;64.90;;;;;;2375208;53;20991;-79
2022/10/19 14:10:57;;;;;;;3.62;2.45;;;22.90;64.70;;;;;;2377377;53;21572;-79